Time;durP1;ratioP1;P1;durP2;ratioP2;P2;SDS_P1;SDS_P2;PMS_P1;PMS_P2;Temp;Humidity;BMP_temperature;BMP_pressure;BME280_temperature;BME280_humidity;BME280_pressure;Samples;Min_cycle;Max_cycle;Signal;HPM_P1;HPM_P2
2022/08/21 00:01:35;;;;;;;53.80;26.48;;;18.90;99.90;;;;;;10323021;28;20042;-83
2022/08/21 00:06:37;;;;;;;91.20;37.97;;;18.90;99.90;;;;;;10320846;28;20046;-82
2022/08/21 00:11:39;;;;;;;68.47;32.63;;;18.80;99.90;;;;;;10322884;28;20085;-82
2022/08/21 00:16:40;;;;;;;100.40;38.20;;;18.80;99.90;;;;;;10322264;28;20032;-84
2022/08/21 00:21:41;;;;;;;57.78;30.10;;;18.80;99.90;;;;;;10321273;28;20581;-83
2022/08/21 00:26:43;;;;;;;65.63;33.03;;;18.80;99.90;;;;;;10323033;28;20038;-83
2022/08/21 00:31:44;;;;;;;67.80;32.78;;;18.90;99.90;;;;;;10319205;28;20097;-82
2022/08/21 00:36:45;;;;;;;69.97;35.95;;;18.90;99.90;;;;;;10323586;28;20038;-83
2022/08/21 00:41:45;;;;;;;61.17;31.33;;;19.00;99.90;;;;;;10323166;28;20038;-82
2022/08/21 00:46:46;;;;;;;58.20;31.40;;;19.00;99.90;;;;;;10318152;28;20026;-82
2022/08/21 00:51:51;;;;;;;80.93;37.13;;;19.10;99.90;;;;;;10322638;28;20030;-82
2022/08/21 00:56:58;;;;;;;64.20;31.77;;;19.10;99.90;;;;;;10322325;28;20371;-82
2022/08/21 01:01:58;;;;;;;58.22;30.67;;;19.10;99.90;;;;;;10325187;28;20120;-83
2022/08/21 01:06:59;;;;;;;73.53;34.10;;;19.10;99.90;;;;;;10329983;28;20402;-82
2022/08/21 01:12:00;;;;;;;62.53;33.60;;;19.20;99.90;;;;;;10312352;28;20949;-82
2022/08/21 01:17:03;;;;;;;82.00;36.88;;;19.20;99.90;;;;;;10328096;28;20089;-82
2022/08/21 01:22:03;;;;;;;65.10;32.33;;;19.20;99.90;;;;;;10330052;28;20029;-82
2022/08/21 01:27:05;;;;;;;61.28;32.08;;;19.20;99.90;;;;;;10330131;28;20022;-81
2022/08/21 01:32:11;;;;;;;70.35;34.22;;;19.20;99.90;;;;;;10328341;28;20685;-81
2022/08/21 01:37:13;;;;;;;65.45;32.38;;;19.30;99.90;;;;;;10329273;28;20038;-82
2022/08/21 01:42:14;;;;;;;58.10;28.98;;;19.30;99.90;;;;;;10328560;28;20022;-82
2022/08/21 01:47:16;;;;;;;60.38;30.42;;;19.30;99.90;;;;;;10325569;28;20126;-82
2022/08/21 01:52:17;;;;;;;59.95;30.70;;;19.40;99.90;;;;;;10326554;28;20018;-81
2022/08/21 01:57:17;;;;;;;66.78;31.40;;;19.50;99.90;;;;;;10316708;28;20058;-84
2022/08/21 02:02:18;;;;;;;56.95;28.55;;;19.50;99.90;;;;;;10303621;28;20118;-82
2022/08/21 02:07:18;;;;;;;60.25;30.17;;;19.50;99.90;;;;;;10328109;28;20748;-84
2022/08/21 02:12:19;;;;;;;66.45;30.90;;;19.60;99.90;;;;;;10327108;28;20394;-81
2022/08/21 02:17:19;;;;;;;60.67;31.38;;;19.60;99.90;;;;;;10308224;28;20042;-81
2022/08/21 02:22:20;;;;;;;59.60;28.05;;;19.60;99.90;;;;;;10327941;28;20046;-81
2022/08/21 02:27:23;;;;;;;64.72;30.20;;;19.60;99.90;;;;;;10328240;28;20030;-81
2022/08/21 02:32:25;;;;;;;70.45;30.88;;;19.60;99.90;;;;;;10325302;28;20085;-82
2022/08/21 02:37:25;;;;;;;68.35;30.73;;;19.60;99.90;;;;;;10326980;28;20077;-82
2022/08/21 02:42:26;;;;;;;74.68;34.03;;;19.60;99.90;;;;;;10326957;28;20055;-80
2022/08/21 02:47:26;;;;;;;71.15;32.67;;;19.60;99.90;;;;;;10324907;28;20041;-82
2022/08/21 02:52:27;;;;;;;73.85;33.60;;;19.60;99.90;;;;;;10327337;28;20034;-81
2022/08/21 02:57:27;;;;;;;72.13;32.50;;;19.60;99.90;;;;;;10326067;28;20034;-83
2022/08/21 03:02:28;;;;;;;91.88;38.30;;;19.60;99.90;;;;;;10323925;28;20359;-81
2022/08/21 03:07:29;;;;;;;90.00;37.78;;;19.60;99.90;;;;;;10325627;28;20116;-83
2022/08/21 03:12:29;;;;;;;82.53;36.80;;;19.60;99.90;;;;;;10324684;28;20121;-80
2022/08/21 03:17:30;;;;;;;82.20;35.03;;;19.60;99.90;;;;;;10325461;28;20133;-81
2022/08/21 03:22:31;;;;;;;81.60;36.15;;;19.60;99.90;;;;;;10325070;28;20463;-81
2022/08/21 03:27:33;;;;;;;89.55;38.35;;;19.60;99.90;;;;;;10323228;28;20026;-81
2022/08/21 03:32:35;;;;;;;90.85;39.40;;;19.70;99.90;;;;;;10323355;28;20061;-82
2022/08/21 03:37:36;;;;;;;104.38;41.72;;;19.70;99.90;;;;;;10323898;28;20053;-81
2022/08/21 03:42:37;;;;;;;107.60;42.42;;;19.70;99.90;;;;;;10324674;28;20484;-81
2022/08/21 03:47:38;;;;;;;82.35;39.85;;;19.80;99.90;;;;;;10322303;28;20062;-82
2022/08/21 03:52:38;;;;;;;91.15;39.67;;;19.80;99.90;;;;;;10321605;28;20026;-82
2022/08/21 03:57:39;;;;;;;88.40;39.50;;;19.80;99.90;;;;;;10323665;28;20077;-81
2022/08/21 04:02:40;;;;;;;112.35;42.15;;;19.80;99.90;;;;;;10321044;28;20026;-82
2022/08/21 04:07:41;;;;;;;97.63;41.20;;;19.80;99.90;;;;;;10314764;28;20058;-81
2022/08/21 04:12:41;;;;;;;69.43;33.05;;;19.80;99.90;;;;;;10322780;28;20505;-82
2022/08/21 04:17:42;;;;;;;89.70;40.30;;;19.90;99.90;;;;;;10321819;28;20046;-82
2022/08/21 04:22:44;;;;;;;98.47;41.65;;;19.90;99.90;;;;;;10309794;28;20084;-83
2022/08/21 04:27:45;;;;;;;106.45;43.80;;;20.00;99.90;;;;;;10293615;28;20506;-84
2022/08/21 04:32:48;;;;;;;106.40;45.20;;;20.00;99.90;;;;;;10303181;28;20038;-79
2022/08/21 04:37:49;;;;;;;107.00;44.80;;;20.10;99.90;;;;;;10322428;28;20110;-80
2022/08/21 04:42:53;;;;;;;87.28;43.85;;;20.10;99.90;;;;;;10314996;28;20022;-81
2022/08/21 04:47:56;;;;;;;107.78;44.78;;;20.10;99.90;;;;;;10333670;28;20061;-81
2022/08/21 04:52:57;;;;;;;86.68;44.10;;;20.10;99.90;;;;;;10336393;28;20034;-81
2022/08/21 04:57:59;;;;;;;92.22;42.95;;;20.20;99.90;;;;;;10336293;28;20034;-82
2022/08/21 05:03:03;;;;;;;89.35;42.47;;;20.20;99.90;;;;;;10336849;28;20079;-82
2022/08/21 05:08:04;;;;;;;81.43;40.08;;;20.30;99.90;;;;;;10334053;28;20054;-82
2022/08/21 05:13:06;;;;;;;102.85;44.75;;;20.30;99.90;;;;;;10318602;28;20027;-81
2022/08/21 05:18:07;;;;;;;96.78;44.30;;;20.30;99.90;;;;;;10335965;28;20092;-80
2022/08/21 05:23:10;;;;;;;104.38;45.67;;;20.30;99.90;;;;;;10335584;28;20540;-82
2022/08/21 05:28:12;;;;;;;85.22;43.60;;;20.40;99.90;;;;;;10335766;28;20453;-81
2022/08/21 05:33:13;;;;;;;100.40;44.35;;;20.40;99.90;;;;;;10335695;28;20041;-81
2022/08/21 05:38:13;;;;;;;89.30;42.10;;;20.40;99.90;;;;;;10335738;28;20368;-81
2022/08/21 05:43:15;;;;;;;91.05;43.92;;;20.40;99.90;;;;;;10335317;28;20133;-81
2022/08/21 05:48:23;;;;;;;95.90;42.35;;;20.40;99.90;;;;;;10330431;28;20463;-81
2022/08/21 05:53:25;;;;;;;100.70;45.42;;;20.50;99.90;;;;;;10329716;28;20045;-81
2022/08/21 05:58:25;;;;;;;96.10;42.42;;;20.60;99.90;;;;;;10328232;28;20042;-81
2022/08/21 06:03:29;;;;;;;326.73;142.15;;;20.70;99.90;;;;;;10328729;28;20026;-80
2022/08/21 06:08:30;;;;;;;98.53;48.35;;;20.80;99.90;;;;;;10328569;28;20415;-81
2022/08/21 06:13:30;;;;;;;84.43;39.38;;;20.80;99.90;;;;;;10327618;28;20027;-81
2022/08/21 06:18:31;;;;;;;80.88;41.78;;;20.90;99.90;;;;;;10310515;28;20046;-81
2022/08/21 06:23:32;;;;;;;78.95;37.13;;;21.10;99.90;;;;;;10327442;28;20073;-81
2022/08/21 06:28:34;;;;;;;76.95;39.03;;;21.20;99.90;;;;;;10327492;28;20030;-81
2022/08/21 06:33:35;;;;;;;71.63;36.17;;;21.20;99.90;;;;;;10327226;28;20030;-82
2022/08/21 06:38:36;;;;;;;75.35;37.15;;;21.20;99.90;;;;;;10323356;28;20054;-83
2022/08/21 06:43:37;;;;;;;72.68;38.00;;;21.20;99.90;;;;;;10320681;28;20088;-82
2022/08/21 06:48:37;;;;;;;60.38;34.35;;;21.30;99.90;;;;;;10327121;28;20045;-82
2022/08/21 06:53:38;;;;;;;73.30;35.55;;;21.40;99.90;;;;;;10326378;28;20035;-82
2022/08/21 06:58:39;;;;;;;70.55;34.10;;;21.40;99.90;;;;;;10325287;28;20046;-82
2022/08/21 07:03:42;;;;;;;28.45;16.80;;;21.30;99.90;;;;;;10323847;28;20030;-84
2022/08/21 07:08:42;;;;;;;11.50;6.55;;;21.00;99.90;;;;;;10325620;28;20046;-83
2022/08/21 07:13:43;;;;;;;5.55;3.65;;;20.40;99.90;;;;;;10324807;28;20526;-83
2022/08/21 07:18:44;;;;;;;8.32;3.03;;;20.00;99.90;;;;;;10325153;28;20038;-81
2022/08/21 07:23:48;;;;;;;4.82;2.42;;;19.80;99.90;;;;;;10325047;28;20360;-83
2022/08/21 07:28:49;;;;;;;3.15;2.00;;;19.60;99.90;;;;;;10318195;28;20056;-83
2022/08/21 07:33:49;;;;;;;2.28;1.60;;;19.70;99.90;;;;;;10324657;28;20038;-84
2022/08/21 07:38:50;;;;;;;2.08;1.70;;;19.70;99.90;;;;;;10323918;28;20077;-83
2022/08/21 07:43:51;;;;;;;3.58;1.30;;;19.60;99.90;;;;;;10324027;28;20035;-82
2022/08/21 07:48:52;;;;;;;1.40;1.10;;;19.60;99.90;;;;;;10323349;28;20077;-83
2022/08/21 07:53:54;;;;;;;2.63;1.33;;;19.70;99.90;;;;;;10324201;28;20077;-84
2022/08/21 07:58:57;;;;;;;3.78;1.45;;;19.80;99.90;;;;;;10300573;28;20166;-83
2022/08/21 08:03:57;;;;;;;1.95;1.38;;;19.80;99.90;;;;;;10296429;28;20459;-83
2022/08/21 08:08:58;;;;;;;2.45;1.33;;;20.00;99.90;;;;;;10321684;28;20057;-84
2022/08/21 08:13:59;;;;;;;3.85;1.52;;;20.10;99.90;;;;;;10320817;28;20026;-82
2022/08/21 08:19:00;;;;;;;5.40;3.40;;;20.20;99.90;;;;;;10319442;28;20497;-82
2022/08/21 08:24:04;;;;;;;3.53;2.75;;;20.40;99.90;;;;;;10295667;28;20066;-82
2022/08/21 08:35:03;;;;;;;2.40;1.08;;;20.70;99.90;;;;;;10310828;28;20129;-83
2022/08/21 08:40:48;;;;;;;1.73;1.25;;;20.90;99.90;;;;;;10301774;28;20537;-84
2022/08/21 08:45:56;;;;;;;4.77;0.93;;;21.20;99.90;;;;;;10239972;28;20490;-83
2022/08/21 08:51:00;;;;;;;1.15;0.90;;;21.40;99.90;;;;;;10303428;28;20113;-84
2022/08/21 08:56:23;;;;;;;0.90;0.77;;;21.90;99.90;;;;;;10303407;28;20096;-83
2022/08/21 09:01:24;;;;;;;0.80;0.55;;;22.50;99.90;;;;;;10295615;28;20061;-83
2022/08/21 09:07:02;;;;;;;1.73;0.70;;;22.70;99.90;;;;;;10298180;28;20055;-83
2022/08/21 09:12:10;;;;;;;2.60;0.90;;;23.10;99.90;;;;;;10284472;28;20129;-85
2022/08/21 09:17:54;;;;;;;1.42;0.70;;;23.20;99.90;;;;;;10291841;28;20129;-83
2022/08/21 09:23:09;;;;;;;1.15;0.60;;;22.80;99.90;;;;;;10298684;28;20155;-82
2022/08/21 09:28:14;;;;;;;1.67;0.85;;;22.40;99.90;;;;;;10304257;28;20121;-83
2022/08/21 09:33:17;;;;;;;1.63;0.70;;;22.20;99.90;;;;;;10287042;28;20042;-83
2022/08/21 09:38:36;;;;;;;0.88;0.75;;;22.70;99.90;;;;;;10292937;28;20110;-83
2022/08/21 09:43:54;;;;;;;1.77;0.77;;;22.70;99.90;;;;;;10290325;28;20045;-83
2022/08/21 09:48:58;;;;;;;2.30;0.90;;;22.80;99.90;;;;;;10321577;28;20101;-84
2022/08/21 09:54:23;;;;;;;2.30;1.00;;;22.90;99.90;;;;;;10322388;28;20028;-84
2022/08/21 09:59:32;;;;;;;2.43;1.17;;;22.90;99.90;;;;;;10307398;28;20038;-84
2022/08/21 10:04:35;;;;;;;2.10;1.08;;;23.00;99.90;;;;;;10317064;28;20479;-84
2022/08/21 10:09:37;;;;;;;1.67;0.80;;;23.10;99.90;;;;;;10299676;28;20144;-82
2022/08/21 10:20:54;;;;;;;0.68;0.57;;;23.70;99.90;;;;;;10303000;28;20086;-85
2022/08/21 10:26:05;;;;;;;1.45;0.90;;;23.80;99.90;;;;;;10306681;28;20042;-85
2022/08/21 10:31:26;;;;;;;1.67;1.25;;;24.10;99.90;;;;;;10306934;28;20454;-85
2022/08/21 10:42:32;;;;;;;3.10;0.73;;;24.40;99.90;;;;;;10320549;28;20049;-84
2022/08/21 10:47:35;;;;;;;1.90;0.80;;;24.40;99.90;;;;;;10320238;28;20034;-82
2022/08/21 10:52:51;;;;;;;2.25;1.27;;;24.10;99.90;;;;;;10323336;28;20126;-85
2022/08/21 10:58:04;;;;;;;;;;;24.30;99.90;;;;;;10324381;28;20057;-84
2022/08/21 11:03:13;;;;;;;2.30;1.10;;;24.60;99.90;;;;;;10317544;28;19921;-84
2022/08/21 11:08:23;;;;;;;0.80;0.80;;;24.80;99.90;;;;;;10323861;28;20049;-83
2022/08/21 11:13:41;;;;;;;1.85;0.90;;;25.00;99.90;;;;;;10322077;28;20048;-86
2022/08/21 11:19:07;;;;;;;4.32;1.00;;;25.30;99.90;;;;;;10304956;28;20161;-83
2022/08/21 11:24:30;;;;;;;2.85;1.13;;;25.30;99.90;;;;;;10322581;28;20062;-82
2022/08/21 11:29:44;;;;;;;2.22;1.27;;;24.90;99.90;;;;;;10303295;28;20046;-83
2022/08/21 11:34:58;;;;;;;;;;;24.30;99.90;;;;;;10302515;28;20045;-84
2022/08/21 11:40:37;;;;;;;1.77;1.25;;;24.00;99.90;;;;;;10321762;28;20586;-84
2022/08/21 11:45:50;;;;;;;3.10;1.50;;;23.70;99.90;;;;;;10318487;28;20035;-85
2022/08/21 11:50:52;;;;;;;2.70;1.15;;;23.30;99.90;;;;;;10316033;28;20497;-85
2022/08/21 11:56:29;;;;;;;2.25;1.10;;;23.10;99.90;;;;;;10323426;28;20030;-84
2022/08/21 12:01:40;;;;;;;1.35;1.13;;;23.00;99.90;;;;;;10303876;28;20060;-87
2022/08/21 12:06:41;;;;;;;0.95;0.93;;;23.20;99.90;;;;;;10304085;28;20475;-83
2022/08/21 12:12:00;;;;;;;3.38;1.40;;;23.90;99.90;;;;;;10319906;28;20473;-84
2022/08/21 12:17:06;;;;;;;1.17;1.05;;;24.40;99.90;;;;;;10319095;28;20145;-85
2022/08/21 12:22:13;;;;;;;1.40;0.82;;;24.60;99.90;;;;;;10320887;28;20026;-85
2022/08/21 12:27:40;;;;;;;0.98;0.82;;;24.60;99.90;;;;;;10290663;28;20623;-83
2022/08/21 12:32:40;;;;;;;0.80;0.80;;;24.30;99.90;;;;;;10307162;28;20457;-85
2022/08/21 12:38:03;;;;;;;0.70;0.70;;;23.90;99.90;;;;;;10314138;28;20046;-82
2022/08/21 12:43:11;;;;;;;1.75;0.82;;;23.40;99.90;;;;;;10315545;28;20034;-83
2022/08/21 12:48:26;;;;;;;0.90;0.90;;;23.10;99.90;;;;;;10313701;28;20057;-84
2022/08/21 12:53:30;;;;;;;1.58;1.45;;;22.80;99.90;;;;;;10309310;28;20034;-84
2022/08/21 12:58:31;;;;;;;1.90;1.40;;;22.60;99.90;;;;;;10324460;28;20038;-83
2022/08/21 13:03:37;;;;;;;1.83;1.60;;;22.40;99.90;;;;;;10319214;28;20532;-82
2022/08/21 13:09:03;;;;;;;2.53;2.15;;;22.30;99.90;;;;;;10323756;28;20137;-83
2022/08/21 13:14:27;;;;;;;2.20;2.00;;;22.00;99.90;;;;;;10296074;28;20018;-84
2022/08/21 13:19:29;;;;;;;2.38;1.80;;;22.00;99.90;;;;;;10306905;28;20411;-86
2022/08/21 13:24:35;;;;;;;1.85;1.75;;;21.90;99.90;;;;;;10324612;28;20026;-84
2022/08/21 13:30:03;;;;;;;2.75;2.03;;;21.90;99.90;;;;;;10316510;28;20034;-84
2022/08/21 13:35:29;;;;;;;4.22;2.10;;;21.90;99.90;;;;;;10307662;28;20077;-84
2022/08/21 13:40:52;;;;;;;4.45;2.00;;;21.80;99.90;;;;;;10323239;28;20411;-85
2022/08/21 13:45:54;;;;;;;2.20;1.65;;;21.70;99.90;;;;;;10320445;28;20034;-84
2022/08/21 13:50:56;;;;;;;2.58;2.35;;;21.60;99.90;;;;;;10296269;28;20475;-82
2022/08/21 13:56:21;;;;;;;6.88;3.35;;;21.60;99.90;;;;;;10325658;28;20062;-83
2022/08/21 14:01:31;;;;;;;4.45;2.97;;;21.60;99.90;;;;;;10325020;28;20034;-82
2022/08/21 14:06:37;;;;;;;3.53;3.22;;;21.30;99.90;;;;;;10323061;28;20054;-81
2022/08/21 14:11:39;;;;;;;4.15;3.80;;;21.00;99.90;;;;;;10315161;28;20031;-81
2022/08/21 14:16:57;;;;;;;6.55;5.75;;;20.80;99.90;;;;;;10302294;28;20409;-82
2022/08/21 14:21:57;;;;;;;7.47;6.70;;;20.50;99.90;;;;;;10321193;28;20031;-80
2022/08/21 14:27:07;;;;;;;8.73;7.25;;;20.40;99.90;;;;;;10322617;28;20034;-80
2022/08/21 14:32:19;;;;;;;7.90;6.80;;;20.10;99.90;;;;;;10298476;28;20042;-78
2022/08/21 14:37:20;;;;;;;6.15;5.40;;;20.00;99.90;;;;;;10318248;28;20414;-78
2022/08/21 14:42:21;;;;;;;6.28;5.57;;;19.80;99.90;;;;;;10315752;28;20041;-82
2022/08/21 14:47:22;;;;;;;7.65;5.68;;;19.50;99.90;;;;;;10314035;28;20113;-80
2022/08/21 14:52:23;;;;;;;7.05;5.53;;;19.30;99.90;;;;;;10320734;28;20026;-79
2022/08/21 14:57:30;;;;;;;5.63;5.03;;;19.10;99.90;;;;;;10323725;28;20487;-80
2022/08/21 15:02:31;;;;;;;7.45;4.68;;;19.10;99.90;;;;;;10309631;28;20892;-80
2022/08/21 15:07:31;;;;;;;6.93;5.00;;;18.90;99.90;;;;;;10311686;28;20042;-81
2022/08/21 15:12:32;;;;;;;7.13;4.97;;;18.80;99.90;;;;;;10310341;28;20463;-80
2022/08/21 15:17:33;;;;;;;9.27;5.10;;;18.60;99.90;;;;;;10315098;28;20518;-80
2022/08/21 15:22:33;;;;;;;10.60;6.18;;;18.40;99.90;;;;;;10314772;28;20033;-80
2022/08/21 15:27:34;;;;;;;11.82;6.85;;;18.30;99.90;;;;;;10314188;28;20565;-81
2022/08/21 15:32:35;;;;;;;9.65;6.57;;;18.10;99.90;;;;;;10319460;28;20497;-80
2022/08/21 15:37:36;;;;;;;9.50;6.53;;;18.10;99.90;;;;;;10301381;28;20037;-80
2022/08/21 15:42:39;;;;;;;10.68;6.38;;;18.00;99.90;;;;;;10298207;28;20042;-81
2022/08/21 15:47:44;;;;;;;10.52;5.88;;;18.10;99.90;;;;;;10316964;28;20046;-80
2022/08/21 15:52:45;;;;;;;12.57;6.45;;;18.00;99.90;;;;;;10318948;28;20045;-81
2022/08/21 15:57:49;;;;;;;10.55;6.35;;;17.90;99.90;;;;;;10321082;28;20371;-80
2022/08/21 16:02:53;;;;;;;9.73;5.35;;;17.90;99.90;;;;;;10300189;28;20125;-80
2022/08/21 16:07:54;;;;;;;7.88;5.97;;;17.90;99.90;;;;;;10311942;28;20725;-81
2022/08/21 16:13:01;;;;;;;8.45;5.65;;;17.90;99.90;;;;;;10311351;28;20080;-80
2022/08/21 16:18:03;;;;;;;6.60;4.95;;;17.90;99.90;;;;;;10316634;28;20556;-81
2022/08/21 16:23:04;;;;;;;11.23;5.90;;;17.80;99.90;;;;;;10313565;28;20030;-80
2022/08/21 16:28:08;;;;;;;8.93;6.13;;;17.80;99.90;;;;;;10316502;28;20038;-80
2022/08/21 16:33:34;;;;;;;7.85;5.55;;;17.80;99.90;;;;;;10312617;28;20053;-79
2022/08/21 16:38:37;;;;;;;9.40;6.57;;;17.60;99.90;;;;;;10318801;28;20590;-81
2022/08/21 16:43:39;;;;;;;11.35;6.93;;;17.50;99.90;;;;;;10320426;28;20084;-80
2022/08/21 16:48:43;;;;;;;10.73;7.10;;;17.50;99.90;;;;;;10318044;28;20121;-81
2022/08/21 16:53:44;;;;;;;11.65;7.40;;;17.40;99.90;;;;;;10316036;28;20031;-79
2022/08/21 16:58:48;;;;;;;13.80;7.95;;;17.50;99.90;;;;;;10320150;28;20709;-81
2022/08/21 17:03:50;;;;;;;10.23;6.20;;;17.50;99.90;;;;;;10314331;28;20066;-81
2022/08/21 17:08:51;;;;;;;10.20;5.97;;;17.50;99.90;;;;;;10315230;28;20073;-80
2022/08/21 17:13:52;;;;;;;9.98;6.15;;;17.50;99.90;;;;;;10306606;28;20081;-80
2022/08/21 17:18:53;;;;;;;10.43;6.43;;;17.40;99.90;;;;;;10316897;28;20747;-80
2022/08/21 17:23:54;;;;;;;13.20;7.30;;;17.40;99.90;;;;;;10307636;28;20031;-80
2022/08/21 17:28:55;;;;;;;13.20;6.65;;;17.30;99.90;;;;;;10310997;28;20560;-80
2022/08/21 17:33:57;;;;;;;13.68;7.40;;;17.20;99.90;;;;;;10319185;28;20069;-80
2022/08/21 17:38:58;;;;;;;14.07;7.68;;;17.10;99.90;;;;;;10313618;28;20038;-81
2022/08/21 17:44:05;;;;;;;17.33;8.52;;;17.10;99.90;;;;;;10303176;28;20423;-80
2022/08/21 17:49:07;;;;;;;23.65;9.05;;;17.10;99.90;;;;;;10297835;28;20035;-82
2022/08/21 17:54:08;;;;;;;20.73;8.63;;;17.10;99.90;;;;;;10322077;28;20113;-82
2022/08/21 17:59:10;;;;;;;22.90;9.50;;;17.20;99.90;;;;;;10322886;28;20053;-81
2022/08/21 18:04:11;;;;;;;17.50;8.45;;;17.10;99.90;;;;;;10321688;28;20038;-82
2022/08/21 18:09:12;;;;;;;22.33;9.15;;;17.00;99.90;;;;;;10323755;28;20086;-81
2022/08/21 18:14:14;;;;;;;18.38;7.88;;;17.00;99.90;;;;;;10317904;28;20035;-80
2022/08/21 18:19:16;;;;;;;23.45;9.77;;;16.90;99.90;;;;;;10316119;28;20497;-81
2022/08/21 18:24:16;;;;;;;21.73;9.30;;;16.90;99.90;;;;;;10324235;28;20034;-82
2022/08/21 18:30:15;;;;;;;14.95;7.13;;;16.90;99.90;;;;;;10311688;28;20494;-82
2022/08/21 18:35:16;;;;;;;17.20;7.53;;;16.80;99.90;;;;;;10287397;28;20041;-83
2022/08/21 18:40:17;;;;;;;13.02;5.60;;;16.80;99.90;;;;;;10295446;28;20057;-83
2022/08/21 18:45:20;;;;;;;15.00;6.03;;;16.80;99.90;;;;;;10300585;28;20027;-82
2022/08/21 18:50:40;;;;;;;15.75;6.10;;;16.70;99.90;;;;;;10305608;28;20447;-82
2022/08/21 18:55:44;;;;;;;14.55;5.80;;;16.70;99.90;;;;;;10298222;28;20035;-81
2022/08/21 19:01:40;;;;;;;12.65;5.35;;;16.70;99.90;;;;;;10300787;28;20046;-81
2022/08/21 19:06:41;;;;;;;;;;;16.60;99.90;;;;;;10279504;28;20061;-81
2022/08/21 19:11:45;;;;;;;11.80;4.63;;;16.60;99.90;;;;;;10299955;28;19913;-83
2022/08/21 19:23:47;;;;;;;;;;;;;;;;;;;;;
2022/08/21 19:41:19;;;;;;;6.75;3.20;;;16.40;99.90;;;;;;10095468;29;20044;-81
2022/08/21 19:46:46;;;;;;;5.10;3.20;;;16.40;99.90;;;;;;10157616;29;20036;-81
2022/08/21 19:51:48;;;;;;;7.47;3.45;;;16.40;99.90;;;;;;10237549;28;20816;-81
2022/08/21 20:03:17;;;;;;;3.60;1.70;;;16.50;99.90;;;;;;10305443;28;20038;-82
2022/08/21 20:08:18;;;;;;;6.55;2.85;;;16.50;99.90;;;;;;10295174;28;20054;-82
2022/08/21 20:13:21;;;;;;;15.32;4.97;;;16.50;99.90;;;;;;10301844;28;20045;-81
2022/08/21 20:24:19;;;;;;;6.68;3.35;;;16.50;99.90;;;;;;10318991;28;20121;-81
2022/08/21 20:29:52;;;;;;;8.50;3.53;;;16.50;99.90;;;;;;10318268;28;20030;-82
2022/08/21 20:34:53;;;;;;;6.90;3.60;;;16.60;99.90;;;;;;10309418;28;20546;-81
2022/08/21 20:40:46;;;;;;;15.50;4.35;;;16.60;99.90;;;;;;10300633;28;20076;-82
2022/08/21 20:46:05;;;;;;;12.07;4.38;;;16.60;99.90;;;;;;10296835;28;20046;-82
2022/08/21 20:52:24;;;;;;;11.93;4.03;;;16.70;99.90;;;;;;10289641;28;20032;-82
2022/08/21 20:57:42;;;;;;;9.10;4.03;;;16.70;99.90;;;;;;10317799;28;20050;-82
2022/08/21 21:03:25;;;;;;;15.05;4.93;;;16.60;99.90;;;;;;10317708;28;20380;-81
2022/08/21 21:09:41;;;;;;;10.10;4.78;;;16.70;99.90;;;;;;10298281;28;20148;-82
2022/08/21 21:14:57;;;;;;;12.07;4.93;;;16.70;99.90;;;;;;10022799;29;20054;-81
2022/08/21 21:20:52;;;;;;;10.52;4.25;;;16.70;99.90;;;;;;10300600;28;20424;-82
2022/08/21 21:26:46;;;;;;;;;;;;;;;;;;;;;
2022/08/21 21:31:50;;;;;;;16.23;6.07;;;16.80;99.90;;;;;;10323702;28;20482;-82
2022/08/21 21:37:45;;;;;;;12.23;5.55;;;16.80;99.90;;;;;;10300847;28;20065;-81
2022/08/21 21:42:46;;;;;;;13.27;5.75;;;16.90;99.90;;;;;;10291723;28;20043;-81
2022/08/21 21:47:59;;;;;;;9.52;5.28;;;16.90;99.90;;;;;;10316913;28;20463;-83
2022/08/21 21:53:05;;;;;;;10.95;5.00;;;16.90;99.90;;;;;;10304666;28;20069;-81
2022/08/21 21:58:29;;;;;;;14.98;6.00;;;16.90;99.90;;;;;;10325209;28;20065;-81
2022/08/21 22:04:05;;;;;;;16.38;6.13;;;16.90;99.90;;;;;;10322908;28;20035;-82
2022/08/21 22:09:10;;;;;;;;;;;16.90;99.90;;;;;;10139460;29;20088;-81
2022/08/21 22:14:14;;;;;;;12.50;5.20;;;16.90;99.90;;;;;;10152684;28;20539;-83
2022/08/21 22:19:23;;;;;;;18.58;6.82;;;16.90;99.90;;;;;;10315409;28;20558;-80
2022/08/21 22:24:35;;;;;;;28.83;9.52;;;17.00;99.90;;;;;;10313842;28;20105;-80
2022/08/21 22:29:50;;;;;;;37.35;12.73;;;17.10;99.90;;;;;;10308215;28;20042;-80
2022/08/21 22:35:22;;;;;;;34.37;14.20;;;17.20;99.90;;;;;;10317406;28;20072;-81
2022/08/21 22:40:30;;;;;;;50.97;15.82;;;17.40;99.90;;;;;;10319000;28;20733;-79
2022/08/21 22:45:50;;;;;;;50.88;18.00;;;17.50;99.90;;;;;;10321810;28;20117;-81
2022/08/21 22:51:04;;;;;;;43.75;17.77;;;17.60;99.90;;;;;;10318689;28;20498;-79
2022/08/21 22:56:06;;;;;;;66.25;20.05;;;17.60;99.90;;;;;;10307382;28;20042;-81
2022/08/21 23:01:12;;;;;;;62.83;19.30;;;17.70;99.90;;;;;;10320794;28;20430;-80
2022/08/21 23:06:27;;;;;;;56.55;18.90;;;17.70;99.90;;;;;;10314239;28;20026;-80
2022/08/21 23:11:40;;;;;;;59.55;19.75;;;17.80;99.90;;;;;;10309661;28;21462;-80
2022/08/21 23:16:45;;;;;;;52.05;18.35;;;17.80;99.90;;;;;;10285320;28;20132;-80
2022/08/21 23:22:12;;;;;;;56.15;19.00;;;17.80;99.90;;;;;;10306869;28;20027;-79
2022/08/21 23:27:30;;;;;;;57.38;21.42;;;17.80;99.90;;;;;;10304450;28;20023;-81
2022/08/21 23:32:57;;;;;;;68.05;22.05;;;17.80;99.90;;;;;;10309928;28;20133;-79
2022/08/21 23:38:08;;;;;;;55.58;20.38;;;17.80;99.90;;;;;;10301245;28;20160;-81
2022/08/21 23:43:14;;;;;;;65.60;21.02;;;17.80;99.90;;;;;;10302494;28;20486;-81
2022/08/21 23:48:34;;;;;;;65.50;21.20;;;17.80;99.90;;;;;;10305141;28;20031;-80
2022/08/21 23:53:56;;;;;;;57.88;20.23;;;17.80;99.90;;;;;;10297218;28;20701;-81
2022/08/21 23:59:32;;;;;;;58.10;18.17;;;17.80;99.90;;;;;;10299001;28;20545;-80
